sensor_id;sensor_type;location;lat;lon;timestamp;temperature;humidity
42145;DHT22;27813;43.516;11.890;2022-08-04T03:35:20;16.40;64.20
42145;DHT22;27813;43.516;11.890;2022-08-04T04:07:20;16.00;65.70
42145;DHT22;27813;43.516;11.890;2022-08-04T04:25:08;16.20;65.70
42145;DHT22;27813;43.516;11.890;2022-08-04T04:29:50;16.40;65.20
42145;DHT22;27813;43.516;11.890;2022-08-04T04:39:24;16.80;64.40
42145;DHT22;27813;43.516;11.890;2022-08-04T04:52:57;18.00;62.70
42145;DHT22;27813;43.516;11.890;2022-08-04T04:57:15;19.60;59.00
42145;DHT22;27813;43.516;11.890;2022-08-04T05:01:38;21.00;55.90
42145;DHT22;27813;43.516;11.890;2022-08-04T05:10:38;23.10;51.90
42145;DHT22;27813;43.516;11.890;2022-08-04T05:14:48;23.90;50.70
42145;DHT22;27813;43.516;11.890;2022-08-04T05:19:20;24.70;49.40
42145;DHT22;27813;43.516;11.890;2022-08-04T05:23:29;25.50;48.30
42145;DHT22;27813;43.516;11.890;2022-08-04T05:27:37;26.20;47.40
42145;DHT22;27813;43.516;11.890;2022-08-04T05:31:50;26.60;46.80
42145;DHT22;27813;43.516;11.890;2022-08-04T05:35:58;27.20;46.00
42145;DHT22;27813;43.516;11.890;2022-08-04T05:40:24;27.60;45.20
42145;DHT22;27813;43.516;11.890;2022-08-04T05:44:31;28.20;44.40
42145;DHT22;27813;43.516;11.890;2022-08-04T05:48:36;28.80;43.40
42145;DHT22;27813;43.516;11.890;2022-08-04T05:52:42;29.60;42.30
42145;DHT22;27813;43.516;11.890;2022-08-04T05:56:48;30.20;41.30
42145;DHT22;27813;43.516;11.890;2022-08-04T06:00:54;30.90;40.30
42145;DHT22;27813;43.516;11.890;2022-08-04T06:05:00;31.20;40.00
42145;DHT22;27813;43.516;11.890;2022-08-04T06:09:05;31.50;39.40
42145;DHT22;27813;43.516;11.890;2022-08-04T06:13:11;31.60;39.10
42145;DHT22;27813;43.516;11.890;2022-08-04T06:17:41;31.90;38.60
42145;DHT22;27813;43.516;11.890;2022-08-04T06:22:11;32.40;38.00
42145;DHT22;27813;43.516;11.890;2022-08-04T06:26:18;33.00;37.40
42145;DHT22;27813;43.516;11.890;2022-08-04T06:30:25;33.70;36.50
42145;DHT22;27813;43.516;11.890;2022-08-04T06:34:32;34.30;35.70
42145;DHT22;27813;43.516;11.890;2022-08-04T06:38:39;34.80;34.90
42145;DHT22;27813;43.516;11.890;2022-08-04T06:42:45;35.30;34.30
42145;DHT22;27813;43.516;11.890;2022-08-04T06:46:51;35.70;33.70
42145;DHT22;27813;43.516;11.890;2022-08-04T06:50:56;36.10;33.00
42145;DHT22;27813;43.516;11.890;2022-08-04T06:55:21;36.50;32.30
42145;DHT22;27813;43.516;11.890;2022-08-04T06:59:28;36.70;31.20
42145;DHT22;27813;43.516;11.890;2022-08-04T07:03:33;35.80;31.90
42145;DHT22;27813;43.516;11.890;2022-08-04T07:07:39;34.00;34.00
42145;DHT22;27813;43.516;11.890;2022-08-04T07:12:00;32.50;35.90
42145;DHT22;27813;43.516;11.890;2022-08-04T07:16:06;31.50;37.40
42145;DHT22;27813;43.516;11.890;2022-08-04T07:20:14;31.00;38.20
42145;DHT22;27813;43.516;11.890;2022-08-04T07:24:37;30.60;38.70
42145;DHT22;27813;43.516;11.890;2022-08-04T07:28:45;30.50;39.10
42145;DHT22;27813;43.516;11.890;2022-08-04T07:32:50;30.30;39.30
42145;DHT22;27813;43.516;11.890;2022-08-04T07:36:56;30.20;39.50
42145;DHT22;27813;43.516;11.890;2022-08-04T07:41:02;30.10;39.60
42145;DHT22;27813;43.516;11.890;2022-08-04T07:45:29;30.00;39.80
42145;DHT22;27813;43.516;11.890;2022-08-04T07:49:34;30.00;39.90
42145;DHT22;27813;43.516;11.890;2022-08-04T07:54:02;30.00;39.90
42145;DHT22;27813;43.516;11.890;2022-08-04T07:58:07;30.10;39.90
42145;DHT22;27813;43.516;11.890;2022-08-04T08:02:13;30.10;39.90
42145;DHT22;27813;43.516;11.890;2022-08-04T08:06:18;30.10;39.90
42145;DHT22;27813;43.516;11.890;2022-08-04T08:10:37;30.20;40.00
42145;DHT22;27813;43.516;11.890;2022-08-04T08:14:42;30.30;39.90
42145;DHT22;27813;43.516;11.890;2022-08-04T08:18:48;30.40;40.00
42145;DHT22;27813;43.516;11.890;2022-08-04T08:22:52;30.40;39.90
42145;DHT22;27813;43.516;11.890;2022-08-04T08:26:57;30.50;39.90
42145;DHT22;27813;43.516;11.890;2022-08-04T08:31:03;30.60;39.70
42145;DHT22;27813;43.516;11.890;2022-08-04T08:35:09;30.60;39.60
42145;DHT22;27813;43.516;11.890;2022-08-04T08:39:23;30.80;39.50
42145;DHT22;27813;43.516;11.890;2022-08-04T09:10:33;31.20;38.10
42145;DHT22;27813;43.516;11.890;2022-08-04T09:19:20;31.30;38.00
42145;DHT22;27813;43.516;11.890;2022-08-04T09:28:39;31.70;38.00
42145;DHT22;27813;43.516;11.890;2022-08-04T09:33:30;31.80;37.60
42145;DHT22;27813;43.516;11.890;2022-08-04T09:38:01;32.00;37.90
42145;DHT22;27813;43.516;11.890;2022-08-04T09:42:51;32.50;37.20
42145;DHT22;27813;43.516;11.890;2022-08-04T09:47:16;33.00;36.30
42145;DHT22;27813;43.516;11.890;2022-08-04T10:00:28;36.50;30.90
42145;DHT22;27813;43.516;11.890;2022-08-04T10:04:43;37.60;29.40
42145;DHT22;27813;43.516;11.890;2022-08-04T10:13:20;39.60;27.10
42145;DHT22;27813;43.516;11.890;2022-08-04T10:22:26;41.00;26.20
42145;DHT22;27813;43.516;11.890;2022-08-04T10:26:57;41.30;25.30
42145;DHT22;27813;43.516;11.890;2022-08-04T10:31:07;42.10;24.90
42145;DHT22;27813;43.516;11.890;2022-08-04T10:35:47;42.60;24.40
42145;DHT22;27813;43.516;11.890;2022-08-04T10:40:04;43.00;23.60
42145;DHT22;27813;43.516;11.890;2022-08-04T10:44:50;43.10;23.60
42145;DHT22;27813;43.516;11.890;2022-08-04T10:49:07;43.70;23.20
42145;DHT22;27813;43.516;11.890;2022-08-04T10:53:18;43.60;22.90
42145;DHT22;27813;43.516;11.890;2022-08-04T10:57:52;43.50;23.20
42145;DHT22;27813;43.516;11.890;2022-08-04T11:02:18;43.40;22.90
42145;DHT22;27813;43.516;11.890;2022-08-04T11:06:25;43.80;22.80
42145;DHT22;27813;43.516;11.890;2022-08-04T11:10:36;44.10;22.60
42145;DHT22;27813;43.516;11.890;2022-08-04T11:15:03;44.50;22.20
42145;DHT22;27813;43.516;11.890;2022-08-04T11:24:02;44.90;21.60
42145;DHT22;27813;43.516;11.890;2022-08-04T11:37:22;43.80;21.50
42145;DHT22;27813;43.516;11.890;2022-08-04T11:41:46;44.20;21.20
42145;DHT22;27813;43.516;11.890;2022-08-04T11:45:59;44.70;21.00
42145;DHT22;27813;43.516;11.890;2022-08-04T11:54:21;44.80;20.70
42145;DHT22;27813;43.516;11.890;2022-08-04T11:58:25;44.00;21.30
42145;DHT22;27813;43.516;11.890;2022-08-04T12:06:55;43.20;21.20
42145;DHT22;27813;43.516;11.890;2022-08-04T12:16:09;42.50;21.30
42145;DHT22;27813;43.516;11.890;2022-08-04T12:20:18;42.50;21.50
42145;DHT22;27813;43.516;11.890;2022-08-04T12:24:52;42.60;21.30
42145;DHT22;27813;43.516;11.890;2022-08-04T12:29:00;42.70;21.30
42145;DHT22;27813;43.516;11.890;2022-08-04T12:33:23;42.80;21.30
42145;DHT22;27813;43.516;11.890;2022-08-04T12:38:01;41.60;21.60
42145;DHT22;27813;43.516;11.890;2022-08-04T12:42:12;41.00;22.10
42145;DHT22;27813;43.516;11.890;2022-08-04T12:46:27;40.90;22.10
42145;DHT22;27813;43.516;11.890;2022-08-04T12:50:34;40.60;22.40
42145;DHT22;27813;43.516;11.890;2022-08-04T12:54:42;40.40;22.50
42145;DHT22;27813;43.516;11.890;2022-08-04T12:58:52;40.00;22.70
42145;DHT22;27813;43.516;11.890;2022-08-04T13:03:07;39.70;23.00
42145;DHT22;27813;43.516;11.890;2022-08-04T13:07:18;39.50;23.10
42145;DHT22;27813;43.516;11.890;2022-08-04T13:11:24;39.00;23.20
42145;DHT22;27813;43.516;11.890;2022-08-04T13:15:29;38.60;23.70
42145;DHT22;27813;43.516;11.890;2022-08-04T13:19:56;38.20;24.20
42145;DHT22;27813;43.516;11.890;2022-08-04T13:24:03;38.10;24.50
42145;DHT22;27813;43.516;11.890;2022-08-04T13:28:31;38.20;24.60
42145;DHT22;27813;43.516;11.890;2022-08-04T13:32:38;38.40;24.60
42145;DHT22;27813;43.516;11.890;2022-08-04T13:36:44;38.80;24.50
42145;DHT22;27813;43.516;11.890;2022-08-04T13:40:50;39.30;24.30
42145;DHT22;27813;43.516;11.890;2022-08-04T13:44:57;39.40;23.70
42145;DHT22;27813;43.516;11.890;2022-08-04T13:49:08;39.10;24.00
42145;DHT22;27813;43.516;11.890;2022-08-04T13:53:36;38.60;24.30
42145;DHT22;27813;43.516;11.890;2022-08-04T13:57:45;38.00;24.50
42145;DHT22;27813;43.516;11.890;2022-08-04T14:02:06;37.10;24.90
42145;DHT22;27813;43.516;11.890;2022-08-04T14:10:22;36.20;25.60
42145;DHT22;27813;43.516;11.890;2022-08-04T14:14:32;36.20;25.50
42145;DHT22;27813;43.516;11.890;2022-08-04T14:18:37;36.50;25.40
42145;DHT22;27813;43.516;11.890;2022-08-04T14:22:47;37.00;25.20
42145;DHT22;27813;43.516;11.890;2022-08-04T14:26:52;37.50;24.80
42145;DHT22;27813;43.516;11.890;2022-08-04T14:31:11;38.00;24.40
42145;DHT22;27813;43.516;11.890;2022-08-04T14:35:16;38.30;24.10
42145;DHT22;27813;43.516;11.890;2022-08-04T14:39:42;38.50;24.10
42145;DHT22;27813;43.516;11.890;2022-08-04T14:44:07;38.60;24.00
42145;DHT22;27813;43.516;11.890;2022-08-04T14:48:14;38.30;24.10
42145;DHT22;27813;43.516;11.890;2022-08-04T14:52:23;38.10;24.10
42145;DHT22;27813;43.516;11.890;2022-08-04T14:56:29;37.90;24.50
42145;DHT22;27813;43.516;11.890;2022-08-04T15:00:55;37.70;24.60
42145;DHT22;27813;43.516;11.890;2022-08-04T15:05:02;37.40;24.60
42145;DHT22;27813;43.516;11.890;2022-08-04T15:09:27;37.20;24.80
42145;DHT22;27813;43.516;11.890;2022-08-04T15:13:33;37.00;24.80
42145;DHT22;27813;43.516;11.890;2022-08-04T15:17:39;36.90;25.00
42145;DHT22;27813;43.516;11.890;2022-08-04T15:21:43;36.80;25.10
42145;DHT22;27813;43.516;11.890;2022-08-04T15:25:52;36.60;25.30
42145;DHT22;27813;43.516;11.890;2022-08-04T15:30:07;36.60;25.40
42145;DHT22;27813;43.516;11.890;2022-08-04T15:34:14;36.60;25.40
42145;DHT22;27813;43.516;11.890;2022-08-04T15:38:32;36.50;25.30
42145;DHT22;27813;43.516;11.890;2022-08-04T15:43:04;36.30;25.40
42145;DHT22;27813;43.516;11.890;2022-08-04T15:47:13;36.20;25.30
42145;DHT22;27813;43.516;11.890;2022-08-04T15:51:24;36.00;25.40
42145;DHT22;27813;43.516;11.890;2022-08-04T15:55:40;35.90;25.60
42145;DHT22;27813;43.516;11.890;2022-08-04T16:00:06;36.00;25.60
42145;DHT22;27813;43.516;11.890;2022-08-04T16:04:23;36.00;25.60
42145;DHT22;27813;43.516;11.890;2022-08-04T16:08:28;36.10;25.70
42145;DHT22;27813;43.516;11.890;2022-08-04T16:13:04;36.10;25.70
42145;DHT22;27813;43.516;11.890;2022-08-04T16:17:16;36.20;25.50
42145;DHT22;27813;43.516;11.890;2022-08-04T16:21:24;36.10;25.60
42145;DHT22;27813;43.516;11.890;2022-08-04T16:25:45;36.10;25.60
42145;DHT22;27813;43.516;11.890;2022-08-04T16:30:06;36.10;25.60
42145;DHT22;27813;43.516;11.890;2022-08-04T16:34:20;36.00;25.70
42145;DHT22;27813;43.516;11.890;2022-08-04T16:39:03;35.80;25.90
42145;DHT22;27813;43.516;11.890;2022-08-04T16:43:14;35.50;26.20
42145;DHT22;27813;43.516;11.890;2022-08-04T16:52:03;35.00;26.50
42145;DHT22;27813;43.516;11.890;2022-08-04T16:56:11;34.90;26.70
42145;DHT22;27813;43.516;11.890;2022-08-04T17:00:27;34.80;27.00
42145;DHT22;27813;43.516;11.890;2022-08-04T17:04:34;34.50;27.50
42145;DHT22;27813;43.516;11.890;2022-08-04T17:08:45;34.10;28.10
42145;DHT22;27813;43.516;11.890;2022-08-04T17:12:53;33.90;28.50
42145;DHT22;27813;43.516;11.890;2022-08-04T17:17:39;33.60;28.90
42145;DHT22;27813;43.516;11.890;2022-08-04T17:22:07;33.40;29.30
42145;DHT22;27813;43.516;11.890;2022-08-04T17:26:16;33.30;29.60
42145;DHT22;27813;43.516;11.890;2022-08-04T17:30:25;33.10;29.90
42145;DHT22;27813;43.516;11.890;2022-08-04T17:34:30;33.00;30.30
42145;DHT22;27813;43.516;11.890;2022-08-04T17:38:53;32.80;30.70
42145;DHT22;27813;43.516;11.890;2022-08-04T17:43:06;32.60;31.00
42145;DHT22;27813;43.516;11.890;2022-08-04T17:47:30;32.50;31.30
42145;DHT22;27813;43.516;11.890;2022-08-04T17:51:52;32.30;31.80
42145;DHT22;27813;43.516;11.890;2022-08-04T17:56:32;32.10;32.20
42145;DHT22;27813;43.516;11.890;2022-08-04T18:01:01;31.80;32.70
42145;DHT22;27813;43.516;11.890;2022-08-04T18:05:27;31.60;33.20
42145;DHT22;27813;43.516;11.890;2022-08-04T18:09:56;31.50;33.60
42145;DHT22;27813;43.516;11.890;2022-08-04T18:14:22;31.30;33.80
42145;DHT22;27813;43.516;11.890;2022-08-04T18:18:32;31.10;34.20
42145;DHT22;27813;43.516;11.890;2022-08-04T18:22:41;30.90;34.50
42145;DHT22;27813;43.516;11.890;2022-08-04T18:26:47;30.70;35.00
42145;DHT22;27813;43.516;11.890;2022-08-04T18:30:54;30.50;35.40
42145;DHT22;27813;43.516;11.890;2022-08-04T18:34:59;30.30;35.70
42145;DHT22;27813;43.516;11.890;2022-08-04T18:39:10;30.10;36.10
42145;DHT22;27813;43.516;11.890;2022-08-04T18:43:19;29.90;36.40
42145;DHT22;27813;43.516;11.890;2022-08-04T18:47:33;29.70;36.80
42145;DHT22;27813;43.516;11.890;2022-08-04T18:51:57;29.50;37.10
42145;DHT22;27813;43.516;11.890;2022-08-04T18:56:04;29.20;37.50
42145;DHT22;27813;43.516;11.890;2022-08-04T19:00:29;29.00;38.10
42145;DHT22;27813;43.516;11.890;2022-08-04T19:04:34;29.00;38.40
42145;DHT22;27813;43.516;11.890;2022-08-04T19:08:39;29.00;38.90
42145;DHT22;27813;43.516;11.890;2022-08-04T19:12:45;28.80;39.00
42145;DHT22;27813;43.516;11.890;2022-08-04T19:16:51;28.80;39.20
42145;DHT22;27813;43.516;11.890;2022-08-04T19:20:59;28.70;39.60
42145;DHT22;27813;43.516;11.890;2022-08-04T19:25:09;28.50;39.70
42145;DHT22;27813;43.516;11.890;2022-08-04T19:29:13;28.50;40.10
42145;DHT22;27813;43.516;11.890;2022-08-04T19:33:18;28.50;40.30
42145;DHT22;27813;43.516;11.890;2022-08-04T19:37:27;28.40;40.50
42145;DHT22;27813;43.516;11.890;2022-08-04T19:41:53;28.30;40.60
42145;DHT22;27813;43.516;11.890;2022-08-04T19:46:09;28.10;40.90
42145;DHT22;27813;43.516;11.890;2022-08-04T19:50:15;27.90;41.10
42145;DHT22;27813;43.516;11.890;2022-08-04T19:54:19;27.70;41.40
42145;DHT22;27813;43.516;11.890;2022-08-04T19:58:29;27.60;41.70
42145;DHT22;27813;43.516;11.890;2022-08-04T20:02:34;27.50;41.90
42145;DHT22;27813;43.516;11.890;2022-08-04T20:06:41;27.30;42.10
42145;DHT22;27813;43.516;11.890;2022-08-04T20:10:47;27.20;42.50
42145;DHT22;27813;43.516;11.890;2022-08-04T20:14:58;27.10;42.70
42145;DHT22;27813;43.516;11.890;2022-08-04T20:19:03;27.10;42.80
42145;DHT22;27813;43.516;11.890;2022-08-04T20:23:17;27.00;42.90
42145;DHT22;27813;43.516;11.890;2022-08-04T20:27:43;26.90;43.20
42145;DHT22;27813;43.516;11.890;2022-08-04T20:32:03;26.90;43.40
42145;DHT22;27813;43.516;11.890;2022-08-04T20:36:12;26.90;43.50
42145;DHT22;27813;43.516;11.890;2022-08-04T20:40:18;27.00;43.50
42145;DHT22;27813;43.516;11.890;2022-08-04T20:44:26;26.90;43.50
42145;DHT22;27813;43.516;11.890;2022-08-04T20:48:31;26.70;43.80
42145;DHT22;27813;43.516;11.890;2022-08-04T20:52:37;26.50;44.70
42145;DHT22;27813;43.516;11.890;2022-08-04T20:56:43;26.20;45.70
42145;DHT22;27813;43.516;11.890;2022-08-04T21:00:56;26.00;46.50
42145;DHT22;27813;43.516;11.890;2022-08-04T21:05:02;25.90;46.80
42145;DHT22;27813;43.516;11.890;2022-08-04T21:09:12;25.70;47.20
42145;DHT22;27813;43.516;11.890;2022-08-04T21:13:38;25.50;47.70
42145;DHT22;27813;43.516;11.890;2022-08-04T21:17:56;25.40;47.90
42145;DHT22;27813;43.516;11.890;2022-08-04T21:22:07;25.20;48.20
42145;DHT22;27813;43.516;11.890;2022-08-04T21:26:21;25.10;48.30
42145;DHT22;27813;43.516;11.890;2022-08-04T21:30:30;25.00;48.60
42145;DHT22;27813;43.516;11.890;2022-08-04T21:34:55;24.90;48.70
42145;DHT22;27813;43.516;11.890;2022-08-04T21:39:04;24.70;49.00
42145;DHT22;27813;43.516;11.890;2022-08-04T21:43:14;24.50;49.30
42145;DHT22;27813;43.516;11.890;2022-08-04T21:47:18;24.40;49.50
42145;DHT22;27813;43.516;11.890;2022-08-04T21:51:31;24.20;49.70
42145;DHT22;27813;43.516;11.890;2022-08-04T21:55:59;24.00;50.00
42145;DHT22;27813;43.516;11.890;2022-08-04T22:00:10;23.90;50.30
42145;DHT22;27813;43.516;11.890;2022-08-04T22:04:26;23.90;50.60
42145;DHT22;27813;43.516;11.890;2022-08-04T22:08:33;23.80;50.80
42145;DHT22;27813;43.516;11.890;2022-08-04T22:12:41;23.70;51.00
42145;DHT22;27813;43.516;11.890;2022-08-04T22:16:46;23.60;51.00
42145;DHT22;27813;43.516;11.890;2022-08-04T22:20:57;23.50;51.30
42145;DHT22;27813;43.516;11.890;2022-08-04T22:25:08;23.50;51.50
42145;DHT22;27813;43.516;11.890;2022-08-04T22:29:16;23.50;52.20
42145;DHT22;27813;43.516;11.890;2022-08-04T22:33:21;23.30;52.50
42145;DHT22;27813;43.516;11.890;2022-08-04T22:37:25;23.20;52.70
42145;DHT22;27813;43.516;11.890;2022-08-04T22:41:47;23.20;53.00
42145;DHT22;27813;43.516;11.890;2022-08-04T22:46:10;23.10;53.10
42145;DHT22;27813;43.516;11.890;2022-08-04T22:50:19;23.10;53.30
42145;DHT22;27813;43.516;11.890;2022-08-04T22:54:31;23.00;53.50
42145;DHT22;27813;43.516;11.890;2022-08-04T22:58:37;22.80;53.80
42145;DHT22;27813;43.516;11.890;2022-08-04T23:02:48;22.70;54.30
42145;DHT22;27813;43.516;11.890;2022-08-04T23:06:53;22.60;54.70
42145;DHT22;27813;43.516;11.890;2022-08-04T23:10:58;22.50;54.70
42145;DHT22;27813;43.516;11.890;2022-08-04T23:15:03;22.50;55.00
42145;DHT22;27813;43.516;11.890;2022-08-04T23:19:09;22.50;55.30
42145;DHT22;27813;43.516;11.890;2022-08-04T23:23:18;22.40;55.60
42145;DHT22;27813;43.516;11.890;2022-08-04T23:27:22;22.30;55.90
